createdAt,value
2022-09-26T00:01:43.002Z,76.43
2022-09-26T00:04:27.902Z,76.56
2022-09-26T00:06:58.676Z,76.62
2022-09-26T00:09:28.389Z,76.75
2022-09-26T00:11:57.072Z,76.73
2022-09-26T00:14:28.218Z,76.54
2022-09-26T00:16:57.142Z,76.49
2022-09-26T00:19:25.701Z,76.48
2022-09-26T00:21:53.955Z,76.68
2022-09-26T00:24:22.036Z,76.56
2022-09-26T00:26:50.107Z,76.61
2022-09-26T00:29:18.281Z,76.75
2022-09-26T00:31:49.322Z,76.47
2022-09-26T00:34:20.056Z,76.39
2022-09-26T00:36:49.973Z,76.56
2022-09-26T00:39:18.660Z,76.69
2022-09-26T00:41:47.175Z,76.65
2022-09-26T00:44:37.227Z,76.73
2022-09-26T00:47:14.614Z,76.58
2022-09-26T00:49:45.758Z,76.50
2022-09-26T00:52:19.978Z,76.46
2022-09-26T00:54:52.553Z,76.59
2022-09-26T00:57:33.933Z,76.64
2022-09-26T01:00:07.937Z,76.58
2022-09-26T01:02:36.536Z,76.68
2022-09-26T01:05:07.202Z,76.46
2022-09-26T01:07:35.707Z,76.41
2022-09-26T01:10:07.600Z,76.67
2022-09-26T01:12:38.209Z,76.60
2022-09-26T01:15:09.214Z,76.59
2022-09-26T01:17:40.384Z,76.43
2022-09-26T01:20:17.500Z,76.33
2022-09-26T01:23:29.297Z,76.30
2022-09-26T01:26:21.636Z,76.32
2022-09-26T01:29:08.422Z,76.42
2022-09-26T01:32:05.602Z,76.67
2022-09-26T01:34:47.393Z,76.59
2022-09-26T01:37:49.563Z,76.24
2022-09-26T01:40:44.211Z,76.22
2022-09-26T01:43:46.022Z,76.51
2022-09-26T01:46:34.397Z,76.30
2022-09-26T01:49:47.188Z,76.57
2022-09-26T01:52:21.204Z,76.46
2022-09-26T01:54:52.957Z,76.36
2022-09-26T01:57:38.427Z,76.61
2022-09-26T02:00:08.827Z,76.56
2022-09-26T02:02:46.817Z,76.71
2022-09-26T02:05:23.748Z,76.64
2022-09-26T02:08:24.781Z,76.67
2022-09-26T02:11:02.385Z,76.39
2022-09-26T02:13:37.806Z,76.47
2022-09-26T02:16:11.095Z,76.74
2022-09-26T02:18:49.227Z,76.67
2022-09-26T02:21:22.316Z,76.82
2022-09-26T02:23:52.130Z,76.44
2022-09-26T02:26:23.868Z,76.37
2022-09-26T02:28:52.880Z,76.60
2022-09-26T02:31:26.513Z,76.76
2022-09-26T02:33:54.655Z,76.97
2022-09-26T02:36:24.775Z,76.91
2022-09-26T02:38:54.073Z,76.99
2022-09-26T02:42:21.434Z,76.81
2022-09-26T02:45:26.040Z,76.82
2022-09-26T02:48:13.391Z,76.94
2022-09-26T02:50:48.217Z,76.72
2022-09-26T02:53:39.224Z,76.93
2022-09-26T02:56:31.770Z,76.60
2022-09-26T02:59:12.845Z,76.74
2022-09-26T03:01:56.790Z,76.71
2022-09-26T03:04:57.683Z,76.85
2022-09-26T03:07:33.696Z,76.65
2022-09-26T03:10:05.550Z,76.66
2022-09-26T03:12:35.056Z,76.97
2022-09-26T03:15:06.567Z,76.49
2022-09-26T03:17:37.134Z,76.66
2022-09-26T03:20:18.415Z,76.82
2022-09-26T03:22:46.854Z,77.11
2022-09-26T03:25:19.267Z,77.37
2022-09-26T03:27:55.136Z,77.03
2022-09-26T03:30:24.730Z,76.66
2022-09-26T03:33:12.769Z,76.91
2022-09-26T03:35:41.146Z,77.07
2022-09-26T03:38:14.133Z,76.96
2022-09-26T03:40:46.996Z,76.93
2022-09-26T03:43:33.933Z,76.82
2022-09-26T03:46:07.440Z,76.85
2022-09-26T03:48:36.117Z,76.81
2022-09-26T03:51:07.487Z,76.73
2022-09-26T03:53:42.192Z,76.76
2022-09-26T03:56:16.098Z,76.85
2022-09-26T03:58:45.459Z,76.64
2022-09-26T04:01:17.011Z,76.67
2022-09-26T04:03:50.273Z,76.70
2022-09-26T04:06:21.037Z,76.57
2022-09-26T04:08:51.817Z,76.79
2022-09-26T04:11:23.247Z,76.84
2022-09-26T04:13:53.935Z,76.95
2022-09-26T04:16:24.806Z,76.78
2022-09-26T04:18:58.232Z,76.77
2022-09-26T04:21:27.544Z,76.70
2022-09-26T04:23:57.447Z,76.48
2022-09-26T04:26:25.518Z,76.70
2022-09-26T04:28:57.379Z,76.83
2022-09-26T04:31:38.025Z,76.92
2022-09-26T04:34:12.166Z,76.97
2022-09-26T04:36:40.741Z,77.12
2022-09-26T04:39:08.953Z,77.10
2022-09-26T04:41:37.806Z,77.08
2022-09-26T04:44:05.877Z,77.21
2022-09-26T04:46:34.094Z,77.34
2022-09-26T04:49:03.331Z,77.47
2022-09-26T04:51:32.757Z,77.51
2022-09-26T04:54:01.029Z,77.24
2022-09-26T04:56:33.606Z,77.37
2022-09-26T04:59:02.499Z,77.42
2022-09-26T05:01:50.973Z,77.53
2022-09-26T05:04:27.647Z,77.58
2022-09-26T05:06:57.980Z,77.41
2022-09-26T05:09:32.961Z,77.46
2022-09-26T05:12:08.027Z,77.35
2022-09-26T05:14:37.827Z,77.42
2022-09-26T05:17:06.204Z,77.57
2022-09-26T05:19:34.890Z,77.48
2022-09-26T05:22:18.117Z,77.33
2022-09-26T05:25:05.950Z,77.53
2022-09-26T05:27:34.841Z,77.21
2022-09-26T05:30:03.016Z,77.53
2022-09-26T05:32:31.188Z,77.60
2022-09-26T05:34:59.669Z,77.40
2022-09-26T05:37:30.096Z,77.86
2022-09-26T05:40:17.079Z,77.58
2022-09-26T05:42:48.869Z,77.64
2022-09-26T05:45:17.144Z,77.73
2022-09-26T05:47:48.906Z,77.70
2022-09-26T05:50:17.793Z,77.74
2022-09-26T05:52:46.373Z,77.75
2022-09-26T05:55:22.844Z,77.51
2022-09-26T05:58:10.271Z,77.89
2022-09-26T06:01:18.436Z,77.49
2022-09-26T06:03:47.577Z,77.85
2022-09-26T06:06:21.586Z,77.75
2022-09-26T06:08:55.189Z,77.76
2022-09-26T06:11:52.551Z,77.93
2022-09-26T06:14:24.599Z,77.93
2022-09-26T06:16:53.093Z,77.77
2022-09-26T06:19:23.083Z,78.19
2022-09-26T06:21:51.795Z,77.88
2022-09-26T06:24:21.504Z,78.01
2022-09-26T06:26:53.057Z,77.83
2022-09-26T06:29:21.231Z,77.51
2022-09-26T06:31:50.805Z,77.70
2022-09-26T06:34:51.985Z,77.84
2022-09-26T06:37:46.567Z,77.92
2022-09-26T06:40:15.033Z,77.94
2022-09-26T06:42:43.751Z,78.00
2022-09-26T06:45:25.742Z,77.99
2022-09-26T06:48:21.097Z,78.03
2022-09-26T06:51:00.711Z,78.04
2022-09-26T06:53:31.736Z,78.07
2022-09-26T06:56:01.711Z,77.89
2022-09-26T06:58:31.256Z,77.68
2022-09-26T07:01:06.885Z,77.77
2022-09-26T07:03:54.485Z,77.66
2022-09-26T07:06:41.553Z,77.82
2022-09-26T07:09:12.208Z,77.79
2022-09-26T07:12:19.986Z,78.01
2022-09-26T07:14:52.804Z,77.88
2022-09-26T07:17:29.645Z,77.77
2022-09-26T07:20:20.246Z,77.82
2022-09-26T07:23:17.093Z,77.97
2022-09-26T07:25:47.231Z,77.89
2022-09-26T07:28:15.592Z,77.77
2022-09-26T07:30:51.546Z,77.79
2022-09-26T07:33:42.144Z,77.78
2022-09-26T07:36:12.367Z,77.90
2022-09-26T07:38:41.256Z,77.88
2022-09-26T07:41:11.186Z,77.99
2022-09-26T07:46:48.103Z,77.82
2022-09-26T07:49:35.391Z,77.60
2022-09-26T07:52:22.710Z,77.68
2022-09-26T07:55:14.031Z,77.85
2022-09-26T07:58:00.432Z,77.85
2022-09-26T08:00:38.437Z,77.65
2022-09-26T08:03:43.783Z,77.77
2022-09-26T08:06:22.707Z,77.72
2022-09-26T08:08:55.181Z,77.60
2022-09-26T08:11:42.196Z,77.60
2022-09-26T08:14:42.525Z,77.50
2022-09-26T08:17:17.559Z,77.61
2022-09-26T08:19:45.734Z,77.71
2022-09-26T08:22:14.716Z,77.45
2022-09-26T08:24:45.459Z,77.62
2022-09-26T08:27:33.640Z,77.58
2022-09-26T08:30:03.010Z,77.46
2022-09-26T08:32:32.583Z,77.71
2022-09-26T08:35:01.195Z,77.67
2022-09-26T08:37:47.390Z,77.60
2022-09-26T08:40:59.886Z,77.57
2022-09-26T08:44:05.886Z,77.78
2022-09-26T08:46:57.284Z,77.93
2022-09-26T08:50:12.663Z,78.06
2022-09-26T08:52:57.219Z,77.99
2022-09-26T08:55:40.139Z,77.93
2022-09-26T08:58:16.130Z,78.10
2022-09-26T09:00:46.317Z,78.34
2022-09-26T09:03:26.269Z,78.64
2022-09-26T09:06:11.951Z,78.70
2022-09-26T09:08:46.170Z,78.63
2022-09-26T09:11:44.037Z,78.59
2022-09-26T09:14:27.469Z,78.71
2022-09-26T09:17:44.386Z,78.94
2022-09-26T09:20:46.966Z,79.12
2022-09-26T09:24:04.705Z,79.15
2022-09-26T09:30:17.570Z,79.51
2022-09-26T09:33:12.646Z,79.45
2022-09-26T09:36:07.956Z,79.48
2022-09-26T09:39:06.440Z,79.29
2022-09-26T09:42:02.470Z,79.73
2022-09-26T09:44:43.061Z,79.78
2022-09-26T09:47:19.089Z,79.68
2022-09-26T09:49:49.622Z,79.37
2022-09-26T09:52:21.274Z,79.01
2022-09-26T09:54:53.544Z,79.00
2022-09-26T09:57:34.723Z,78.88
2022-09-26T10:00:15.294Z,79.11
2022-09-26T10:02:59.888Z,79.07
2022-09-26T10:05:39.485Z,78.87
2022-09-26T10:08:14.095Z,78.82
2022-09-26T10:11:28.674Z,78.97
2022-09-26T10:14:03.552Z,79.17
2022-09-26T10:17:09.586Z,79.12
2022-09-26T10:19:45.124Z,78.97
2022-09-26T10:22:45.254Z,79.12
2022-09-26T10:25:26.485Z,79.22
2022-09-26T10:28:01.448Z,79.11
2022-09-26T10:30:33.411Z,78.92
2022-09-26T10:33:06.295Z,78.84
2022-09-26T10:35:41.642Z,78.79
2022-09-26T10:38:23.223Z,78.90
2022-09-26T10:41:25.189Z,78.96
2022-09-26T10:43:56.538Z,79.14
2022-09-26T10:46:51.583Z,79.15
2022-09-26T10:49:36.509Z,79.24
2022-09-26T10:52:30.385Z,79.08
2022-09-26T10:55:13.307Z,79.26
2022-09-26T10:57:49.054Z,79.42
2022-09-26T11:00:42.522Z,79.40
2022-09-26T11:03:34.797Z,79.32
2022-09-26T11:06:40.821Z,79.31
2022-09-26T11:09:28.963Z,79.19
2022-09-26T11:11:57.034Z,79.22
2022-09-26T11:14:32.989Z,79.36
2022-09-26T11:17:13.044Z,79.57
2022-09-26T11:19:55.031Z,79.51
2022-09-26T11:22:54.561Z,79.16
2022-09-26T11:25:32.144Z,79.49
2022-09-26T11:28:09.227Z,79.47
2022-09-26T11:30:56.924Z,79.47
2022-09-26T11:33:26.872Z,79.28
2022-09-26T11:36:55.053Z,79.23
2022-09-26T11:39:35.313Z,79.24
2022-09-26T11:42:09.629Z,79.52
2022-09-26T11:44:43.435Z,79.57
2022-09-26T11:47:38.641Z,79.70
2022-09-26T11:50:12.452Z,79.73
2022-09-26T11:53:20.762Z,79.74
2022-09-26T11:56:16.176Z,80.12
2022-09-26T11:59:02.370Z,80.05
2022-09-26T12:01:39.048Z,79.99
2022-09-26T12:04:19.712Z,79.69
2022-09-26T12:06:54.336Z,79.49
2022-09-26T12:09:45.554Z,79.44
2022-09-26T12:12:24.578Z,79.66
2022-09-26T12:15:25.829Z,79.60
2022-09-26T12:18:21.443Z,79.51
2022-09-26T12:20:58.731Z,79.28
2022-09-26T12:23:34.483Z,79.33
2022-09-26T12:26:08.905Z,79.28
2022-09-26T12:29:24.079Z,79.50
2022-09-26T12:32:24.306Z,79.53
2022-09-26T12:35:05.379Z,79.74
2022-09-26T12:37:57.617Z,79.62
2022-09-26T12:40:46.115Z,79.86
2022-09-26T12:43:59.194Z,79.86
2022-09-26T12:46:30.100Z,79.58
2022-09-26T12:49:36.501Z,79.31
2022-09-26T12:52:10.911Z,79.03
2022-09-26T12:54:59.780Z,78.79
2022-09-26T12:58:02.155Z,79.16
2022-09-26T13:00:44.154Z,79.30
2022-09-26T13:03:17.954Z,79.20
2022-09-26T13:06:08.805Z,79.23
2022-09-26T13:09:03.663Z,79.20
2022-09-26T13:12:26.738Z,79.07
2022-09-26T13:15:19.578Z,79.26
2022-09-26T13:18:00.858Z,79.54
2022-09-26T13:20:41.530Z,79.35
2022-09-26T13:23:20.450Z,79.23
2022-09-26T13:26:03.473Z,79.25
2022-09-26T13:28:55.706Z,79.14
2022-09-26T13:31:38.397Z,79.02
2022-09-26T13:34:29.842Z,78.99
2022-09-26T13:36:59.606Z,78.94
2022-09-26T13:39:48.410Z,78.86
2022-09-26T13:42:28.669Z,78.77
2022-09-26T13:45:02.578Z,78.72
2022-09-26T13:47:46.726Z,78.76
2022-09-26T13:50:42.050Z,79.00
2022-09-26T13:53:43.070Z,78.67
2022-09-26T13:56:36.394Z,78.46
2022-09-26T13:59:18.339Z,78.32
2022-09-26T14:02:05.880Z,78.40
2022-09-26T14:04:36.293Z,78.59
2022-09-26T14:07:28.839Z,78.52
2022-09-26T14:10:08.964Z,78.08
2022-09-26T14:13:08.198Z,77.89
2022-09-26T14:15:48.694Z,78.08
2022-09-26T14:18:34.659Z,78.09
2022-09-26T14:21:41.121Z,77.93
2022-09-26T14:24:21.175Z,77.78
2022-09-26T14:26:58.747Z,77.80
2022-09-26T14:29:49.970Z,77.71
2022-09-26T14:32:23.670Z,77.83
2022-09-26T14:34:54.929Z,77.97
2022-09-26T14:37:25.969Z,77.52
2022-09-26T14:40:00.335Z,77.51
2022-09-26T14:42:43.924Z,77.49
2022-09-26T14:45:16.807Z,77.58
2022-09-26T14:47:48.772Z,77.51
2022-09-26T14:50:25.039Z,77.37
2022-09-26T14:52:59.863Z,77.41
2022-09-26T14:55:30.809Z,77.57
2022-09-26T14:58:34.406Z,77.62
2022-09-26T15:01:19.344Z,77.66
2022-09-26T15:03:56.463Z,77.51
2022-09-26T15:06:26.679Z,77.27
2022-09-26T15:08:55.876Z,77.40
2022-09-26T15:11:33.058Z,77.57
2022-09-26T15:14:13.097Z,77.70
2022-09-26T15:16:47.943Z,77.80
2022-09-26T15:19:33.729Z,77.77
2022-09-26T15:22:12.832Z,77.67
2022-09-26T15:24:41.056Z,77.94
2022-09-26T15:27:29.588Z,78.05
2022-09-26T15:30:18.644Z,78.11
2022-09-26T15:32:50.409Z,78.02
2022-09-26T15:35:19.501Z,77.87
2022-09-26T15:37:48.087Z,77.60
2022-09-26T15:40:19.120Z,77.86
2022-09-26T15:43:01.841Z,78.10
2022-09-26T15:45:33.746Z,78.15
2022-09-26T15:48:24.504Z,78.12
2022-09-26T15:51:02.515Z,78.21
2022-09-26T15:53:36.622Z,78.10
2022-09-26T15:56:09.791Z,78.14
2022-09-26T15:58:50.377Z,78.28
2022-09-26T16:01:22.099Z,78.30
2022-09-26T16:04:00.038Z,78.46
2022-09-26T16:06:35.993Z,78.27
2022-09-26T16:09:34.682Z,78.20
2022-09-26T16:12:11.614Z,78.28
2022-09-26T16:14:51.000Z,78.47
2022-09-26T16:17:32.791Z,78.54
2022-09-26T16:20:09.668Z,78.61
2022-09-26T16:22:39.449Z,78.75
2022-09-26T16:25:39.398Z,78.55
2022-09-26T16:28:10.544Z,78.60
2022-09-26T16:30:45.414Z,78.79
2022-09-26T16:33:30.891Z,78.81
2022-09-26T16:36:18.588Z,78.78
2022-09-26T16:38:53.926Z,78.70
2022-09-26T16:41:56.275Z,78.51
2022-09-26T16:44:34.508Z,78.67
2022-09-26T16:47:25.519Z,78.81
2022-09-26T16:49:53.590Z,78.85
2022-09-26T16:52:32.087Z,78.74
2022-09-26T16:55:02.944Z,78.65
2022-09-26T16:57:35.007Z,78.50
2022-09-26T17:00:39.125Z,78.68
2022-09-26T17:03:29.765Z,78.61
2022-09-26T17:05:59.791Z,78.66
2022-09-26T17:08:28.479Z,78.70
2022-09-26T17:11:02.014Z,78.70
2022-09-26T17:13:35.432Z,78.42
2022-09-26T17:16:03.950Z,78.58
2022-09-26T17:18:34.023Z,78.68
2022-09-26T17:21:02.725Z,78.64
2022-09-26T17:23:40.338Z,78.71
2022-09-26T17:26:18.615Z,78.76
2022-09-26T17:28:46.789Z,78.68
2022-09-26T17:31:20.234Z,78.47
2022-09-26T17:33:52.644Z,78.69
2022-09-26T17:36:29.516Z,78.82
2022-09-26T17:39:02.637Z,78.72
2022-09-26T17:41:32.848Z,79.05
2022-09-26T17:44:01.274Z,78.67
2022-09-26T17:46:29.773Z,78.63
2022-09-26T17:48:59.505Z,78.60
2022-09-26T17:51:27.591Z,78.74
2022-09-26T17:53:57.572Z,78.73
2022-09-26T17:56:26.715Z,78.83
2022-09-26T17:58:56.004Z,78.74
2022-09-26T18:01:30.479Z,78.45
2022-09-26T18:04:02.572Z,78.49
2022-09-26T18:06:33.110Z,78.79
2022-09-26T18:09:07.735Z,78.56
2022-09-26T18:11:37.556Z,78.47
2022-09-26T18:14:07.051Z,78.33
2022-09-26T18:16:35.447Z,78.41
2022-09-26T18:19:07.584Z,78.37
2022-09-26T18:21:36.629Z,78.33
2022-09-26T18:24:07.157Z,78.11
2022-09-26T18:26:42.477Z,78.16
2022-09-26T18:29:15.451Z,78.45
2022-09-26T18:31:46.074Z,78.58
2022-09-26T18:34:18.997Z,78.33
2022-09-26T18:36:50.322Z,78.33
2022-09-26T18:39:18.992Z,78.30
2022-09-26T18:41:51.282Z,78.33
2022-09-26T18:44:20.580Z,78.20
2022-09-26T18:46:49.508Z,78.42
2022-09-26T18:49:18.153Z,78.57
2022-09-26T18:51:47.039Z,78.50
2022-09-26T18:54:17.393Z,78.36
2022-09-26T18:57:04.383Z,78.57
2022-09-26T18:59:32.562Z,78.53
2022-09-26T19:02:02.890Z,78.60
2022-09-26T19:04:31.952Z,78.38
2022-09-26T19:07:04.791Z,78.35
2022-09-26T19:09:35.511Z,78.39
2022-09-26T19:12:04.282Z,78.34
2022-09-26T19:14:32.966Z,78.54
2022-09-26T19:17:05.030Z,78.32
2022-09-26T19:19:33.411Z,78.52
2022-09-26T19:22:08.345Z,78.22
2022-09-26T19:24:38.360Z,77.98
2022-09-26T19:27:25.251Z,77.98
2022-09-26T19:30:15.359Z,78.14
2022-09-26T19:32:46.810Z,78.41
2022-09-26T19:35:25.939Z,78.53
2022-09-26T19:37:54.323Z,78.29
2022-09-26T19:40:23.655Z,78.34
2022-09-26T19:42:52.172Z,78.12
2022-09-26T19:45:21.810Z,78.48
2022-09-26T19:47:54.715Z,78.44
2022-09-26T19:50:25.944Z,78.50
2022-09-26T19:52:56.683Z,78.38
2022-09-26T19:55:30.069Z,78.32
2022-09-26T19:58:03.158Z,78.38
2022-09-26T20:00:31.253Z,78.15
2022-09-26T20:02:59.474Z,78.59
2022-09-26T20:05:28.190Z,78.57
2022-09-26T20:07:56.266Z,78.56
2022-09-26T20:10:27.203Z,78.47
2022-09-26T20:12:55.275Z,78.25
2022-09-26T20:15:24.368Z,78.44
2022-09-26T20:17:55.210Z,78.40
2022-09-26T20:20:25.427Z,78.27
2022-09-26T20:22:55.505Z,78.21
2022-09-26T20:25:31.706Z,78.32
2022-09-26T20:28:00.363Z,78.25
2022-09-26T20:30:47.309Z,78.00
2022-09-26T20:33:15.588Z,78.22
2022-09-26T20:35:46.318Z,78.23
2022-09-26T20:38:37.018Z,78.12
2022-09-26T20:41:19.019Z,78.21
2022-09-26T20:43:50.260Z,78.38
2022-09-26T20:46:22.202Z,78.22
2022-09-26T20:48:51.420Z,78.02
2022-09-26T20:51:31.261Z,77.90
2022-09-26T20:54:00.875Z,78.30
2022-09-26T20:56:29.537Z,78.21
2022-09-26T20:58:57.595Z,78.14
2022-09-26T21:01:28.388Z,78.20
2022-09-26T21:03:56.643Z,78.28
2022-09-26T21:06:33.318Z,77.90
2022-09-26T21:09:02.925Z,77.98
2022-09-26T21:11:30.994Z,78.39
2022-09-26T21:13:59.065Z,78.65
2022-09-26T21:16:27.322Z,78.48
2022-09-26T21:18:55.620Z,78.65
2022-09-26T21:21:30.551Z,78.49
2022-09-26T21:23:59.654Z,78.76
2022-09-26T21:26:30.067Z,78.77
2022-09-26T21:28:58.350Z,78.89
2022-09-26T21:31:30.208Z,78.77
2022-09-26T21:34:00.339Z,78.87
2022-09-26T21:36:39.687Z,78.80
2022-09-26T21:39:07.904Z,78.74
2022-09-26T21:41:36.788Z,78.90
2022-09-26T21:44:12.973Z,78.97
2022-09-26T21:46:41.086Z,78.99
2022-09-26T21:49:09.309Z,78.85
2022-09-26T21:51:37.616Z,78.76
2022-09-26T21:54:26.780Z,78.91
2022-09-26T21:57:00.894Z,78.94
2022-09-26T21:59:30.296Z,79.04
2022-09-26T22:01:58.497Z,79.03
2022-09-26T22:04:26.745Z,79.05
2022-09-26T22:06:54.822Z,78.85
2022-09-26T22:09:23.092Z,79.12
2022-09-26T22:11:51.165Z,78.87
2022-09-26T22:14:19.234Z,79.03
2022-09-26T22:16:47.367Z,79.01
2022-09-26T22:19:15.603Z,79.06
2022-09-26T22:21:43.859Z,79.00
2022-09-26T22:24:12.838Z,78.65
2022-09-26T22:26:40.925Z,78.75
2022-09-26T22:29:09.086Z,78.82
2022-09-26T22:31:37.169Z,78.77
2022-09-26T22:34:05.240Z,79.04
2022-09-26T22:36:33.618Z,78.91
2022-09-26T22:39:02.015Z,78.67
2022-09-26T22:41:30.067Z,78.68
2022-09-26T22:43:58.344Z,78.64
2022-09-26T22:46:26.474Z,78.65
2022-09-26T22:48:58.993Z,78.75
2022-09-26T22:51:30.033Z,78.61
2022-09-26T22:53:58.104Z,78.52
2022-09-26T22:56:26.175Z,78.47
2022-09-26T22:58:54.861Z,78.40
2022-09-26T23:01:25.792Z,78.56
2022-09-26T23:03:54.384Z,78.79
2022-09-26T23:06:23.687Z,78.87
2022-09-26T23:08:52.147Z,78.82
2022-09-26T23:11:20.650Z,78.42
2022-09-26T23:13:52.295Z,78.46
2022-09-26T23:16:23.416Z,78.52
2022-09-26T23:18:52.503Z,78.27
2022-09-26T23:21:26.244Z,78.31
2022-09-26T23:23:56.977Z,78.48
2022-09-26T23:26:28.222Z,78.40
2022-09-26T23:28:57.625Z,78.51
2022-09-26T23:31:27.821Z,78.45
2022-09-26T23:33:57.556Z,78.66
2022-09-26T23:36:25.732Z,78.64
2022-09-26T23:38:54.090Z,78.65
2022-09-26T23:41:22.186Z,78.41
2022-09-26T23:43:50.252Z,78.54
2022-09-26T23:46:18.532Z,78.48
2022-09-26T23:48:46.704Z,78.36
2022-09-26T23:51:14.773Z,78.42
2022-09-26T23:53:42.844Z,78.34
2022-09-26T23:56:14.405Z,78.33
2022-09-26T23:58:42.854Z,78.38
